Hurlburt Field, FL

10:38 AM CST on February 11, 2016 (GMT -0600)
Hurlburt | | Change Station
CLOSE
Current Station
Airport
Location: Hurlburt Field,
Elevation: 39 ft
Nearby Weather Stations

Elev 39 ft 30.43 °N, 86.69 °W | Updated 40 minutes ago

Clear
Clear
64 °F
Feels Like 64 °F
N
10
Wind Variable Wind from SW

Today
High -- | Low -- °F
--% Chance of Precip.
Yesterday
High -- | Low -- °F
Precip. -- in
Pressure 30.25 in
Visibility 10.0 miles
Clouds Clear
Dew Point 47 °F
Humidity 53%
Rainfall 0.00 in
Snow Depth Not available.
6:30 AM 5:31 PM
Waxing Crescent, 13% visible
METAR KHRT 111558Z AUTO 22009KT 10SM CLR 18/08 A3024 RMK AO2 RAB27E28DZB28E37 SLP242 P0000 T01770081 $
Pressure 30.25 in
Visibility 10.0 miles
Clouds Clear
Dew Point 47 °F
Humidity 53%
Rainfall 0.00 in
Snow Depth Not available.
6:30 AM 5:31 PM
Waxing Crescent, 13% visible
METAR KHRT 111558Z AUTO 22009KT 10SM CLR 18/08 A3024 RMK AO2 RAB27E28DZB28E37 SLP242 P0000 T01770081 $

10-Day Weather Forecast

Almanac

Astronomy

Feb. 11, 2016 Rise Set
Actual Time
Civil Twilight
Nautical Twilight
Astronomical Twilight
Moon
Length of Visible Light
Length of Day
Tomorrow will be .
, % of the Moon is Illuminated

Today's Extremes

State Highs State Lows

Community

WunderPhotos

Upload Photos

1,892,095 photos uploaded!

WunderBlog® & News

Nearby

Air Quality

  Air Quality AQ Index Pollutant
Not available.

Snow Depth

Station Depth Elevation

Earthquake Activity

City Distance Mag. Time & Date
Minimum magnitude displayed is 2.5.

Coastal Water Temperatures

Place Temperature

Stations

Nearby Weather Stations

Station Location Temp. Windchill Dew Point Humidity Wind Precip. Elev Updated Type
                   

Watches & Warnings

There are currently no watches in effect.